sensor_id;sensor_type;location;lat;lon;timestamp;P1;durP1;ratioP1;P2;durP2;ratioP2
25449;SDS011;13371;52.080;5.624;2023-03-23T00:01:14;8.10;;;3.17;;
25449;SDS011;13371;52.080;5.624;2023-03-23T00:03:45;5.93;;;2.60;;
25449;SDS011;13371;52.080;5.624;2023-03-23T00:06:15;6.75;;;2.60;;
25449;SDS011;13371;52.080;5.624;2023-03-23T00:08:46;4.25;;;2.40;;
25449;SDS011;13371;52.080;5.624;2023-03-23T00:11:18;6.43;;;2.60;;
25449;SDS011;13371;52.080;5.624;2023-03-23T00:13:46;4.82;;;2.47;;
25449;SDS011;13371;52.080;5.624;2023-03-23T00:16:15;4.20;;;2.20;;
25449;SDS011;13371;52.080;5.624;2023-03-23T00:18:43;5.63;;;2.55;;
25449;SDS011;13371;52.080;5.624;2023-03-23T00:21:10;4.10;;;2.28;;
25449;SDS011;13371;52.080;5.624;2023-03-23T00:23:35;6.40;;;2.25;;
25449;SDS011;13371;52.080;5.624;2023-03-23T00:26:01;4.45;;;2.58;;
25449;SDS011;13371;52.080;5.624;2023-03-23T00:28:27;6.10;;;2.35;;
25449;SDS011;13371;52.080;5.624;2023-03-23T00:30:56;2.90;;;1.60;;
25449;SDS011;13371;52.080;5.624;2023-03-23T00:33:26;7.35;;;2.38;;
25449;SDS011;13371;52.080;5.624;2023-03-23T00:35:53;5.00;;;2.30;;
25449;SDS011;13371;52.080;5.624;2023-03-23T00:38:23;9.75;;;2.65;;
25449;SDS011;13371;52.080;5.624;2023-03-23T00:40:49;6.68;;;2.55;;
25449;SDS011;13371;52.080;5.624;2023-03-23T00:43:15;4.82;;;2.60;;
25449;SDS011;13371;52.080;5.624;2023-03-23T00:45:43;5.50;;;2.30;;
25449;SDS011;13371;52.080;5.624;2023-03-23T00:48:10;5.63;;;2.40;;
25449;SDS011;13371;52.080;5.624;2023-03-23T00:50:37;3.22;;;1.92;;
25449;SDS011;13371;52.080;5.624;2023-03-23T00:53:04;3.92;;;2.28;;
25449;SDS011;13371;52.080;5.624;2023-03-23T00:55:30;6.10;;;1.80;;
25449;SDS011;13371;52.080;5.624;2023-03-23T00:57:55;3.08;;;2.03;;
25449;SDS011;13371;52.080;5.624;2023-03-23T01:00:21;6.05;;;2.10;;
25449;SDS011;13371;52.080;5.624;2023-03-23T01:02:48;2.90;;;1.55;;
25449;SDS011;13371;52.080;5.624;2023-03-23T01:05:16;3.85;;;2.30;;
25449;SDS011;13371;52.080;5.624;2023-03-23T01:07:42;7.10;;;2.17;;
25449;SDS011;13371;52.080;5.624;2023-03-23T01:10:09;5.80;;;2.20;;
25449;SDS011;13371;52.080;5.624;2023-03-23T01:12:37;3.05;;;1.88;;
25449;SDS011;13371;52.080;5.624;2023-03-23T01:15:04;3.17;;;1.63;;
25449;SDS011;13371;52.080;5.624;2023-03-23T01:17:30;4.50;;;1.98;;
25449;SDS011;13371;52.080;5.624;2023-03-23T01:19:55;6.28;;;1.88;;
25449;SDS011;13371;52.080;5.624;2023-03-23T01:22:21;4.05;;;2.33;;
25449;SDS011;13371;52.080;5.624;2023-03-23T01:24:47;3.30;;;1.77;;
25449;SDS011;13371;52.080;5.624;2023-03-23T01:27:12;2.90;;;1.80;;
25449;SDS011;13371;52.080;5.624;2023-03-23T01:29:38;4.93;;;2.08;;
25449;SDS011;13371;52.080;5.624;2023-03-23T01:32:03;3.25;;;2.00;;
25449;SDS011;13371;52.080;5.624;2023-03-23T01:34:29;3.53;;;1.90;;
25449;SDS011;13371;52.080;5.624;2023-03-23T01:36:55;3.60;;;2.00;;
25449;SDS011;13371;52.080;5.624;2023-03-23T01:39:20;4.07;;;1.88;;
25449;SDS011;13371;52.080;5.624;2023-03-23T01:41:46;5.68;;;1.60;;
25449;SDS011;13371;52.080;5.624;2023-03-23T01:46:43;3.85;;;1.80;;
25449;SDS011;13371;52.080;5.624;2023-03-23T01:49:11;2.88;;;1.52;;
25449;SDS011;13371;52.080;5.624;2023-03-23T01:51:57;3.67;;;1.90;;
25449;SDS011;13371;52.080;5.624;2023-03-23T01:54:26;3.42;;;1.77;;
25449;SDS011;13371;52.080;5.624;2023-03-23T01:57:01;4.45;;;1.92;;
25449;SDS011;13371;52.080;5.624;2023-03-23T01:59:31;3.75;;;1.67;;
25449;SDS011;13371;52.080;5.624;2023-03-23T02:01:58;7.07;;;1.88;;
25449;SDS011;13371;52.080;5.624;2023-03-23T02:04:25;4.68;;;1.98;;
25449;SDS011;13371;52.080;5.624;2023-03-23T02:06:52;3.13;;;2.08;;
25449;SDS011;13371;52.080;5.624;2023-03-23T02:09:19;4.95;;;1.85;;
25449;SDS011;13371;52.080;5.624;2023-03-23T02:11:45;3.05;;;1.88;;
25449;SDS011;13371;52.080;5.624;2023-03-23T02:14:14;4.57;;;2.38;;
25449;SDS011;13371;52.080;5.624;2023-03-23T02:16:52;5.57;;;2.40;;
25449;SDS011;13371;52.080;5.624;2023-03-23T02:27:40;5.80;;;2.28;;
25449;SDS011;13371;52.080;5.624;2023-03-23T02:38:27;4.57;;;2.22;;
25449;SDS011;13371;52.080;5.624;2023-03-23T02:41:00;4.68;;;1.77;;
25449;SDS011;13371;52.080;5.624;2023-03-23T02:43:30;3.67;;;2.00;;
25449;SDS011;13371;52.080;5.624;2023-03-23T02:46:00;2.50;;;1.63;;
25449;SDS011;13371;52.080;5.624;2023-03-23T02:48:31;4.38;;;2.10;;
25449;SDS011;13371;52.080;5.624;2023-03-23T02:50:58;5.70;;;2.08;;
25449;SDS011;13371;52.080;5.624;2023-03-23T02:53:26;3.80;;;2.25;;
25449;SDS011;13371;52.080;5.624;2023-03-23T02:55:54;6.85;;;2.90;;
25449;SDS011;13371;52.080;5.624;2023-03-23T02:58:22;5.57;;;2.03;;
25449;SDS011;13371;52.080;5.624;2023-03-23T03:00:51;4.03;;;2.03;;
25449;SDS011;13371;52.080;5.624;2023-03-23T03:03:20;5.63;;;2.55;;
25449;SDS011;13371;52.080;5.624;2023-03-23T03:14:08;3.83;;;2.38;;
25449;SDS011;13371;52.080;5.624;2023-03-23T03:18:52;3.90;;;2.00;;
25449;SDS011;13371;52.080;5.624;2023-03-23T03:21:40;4.15;;;1.90;;
25449;SDS011;13371;52.080;5.624;2023-03-23T03:24:08;4.45;;;2.28;;
25449;SDS011;13371;52.080;5.624;2023-03-23T03:26:40;5.78;;;2.50;;
25449;SDS011;13371;52.080;5.624;2023-03-23T03:29:16;5.65;;;2.22;;
25449;SDS011;13371;52.080;5.624;2023-03-23T03:31:45;5.65;;;2.35;;
25449;SDS011;13371;52.080;5.624;2023-03-23T03:34:14;4.22;;;1.67;;
25449;SDS011;13371;52.080;5.624;2023-03-23T03:36:42;7.65;;;1.80;;
25449;SDS011;13371;52.080;5.624;2023-03-23T03:39:10;4.47;;;1.90;;
25449;SDS011;13371;52.080;5.624;2023-03-23T03:41:40;3.60;;;2.17;;
25449;SDS011;13371;52.080;5.624;2023-03-23T03:44:05;4.05;;;2.42;;
25449;SDS011;13371;52.080;5.624;2023-03-23T03:46:32;3.03;;;1.60;;
25449;SDS011;13371;52.080;5.624;2023-03-23T03:48:59;2.85;;;1.48;;
25449;SDS011;13371;52.080;5.624;2023-03-23T03:51:26;3.65;;;2.10;;
25449;SDS011;13371;52.080;5.624;2023-03-23T03:53:53;2.95;;;1.92;;
25449;SDS011;13371;52.080;5.624;2023-03-23T03:56:19;4.22;;;1.40;;
25449;SDS011;13371;52.080;5.624;2023-03-23T03:58:46;5.28;;;2.33;;
25449;SDS011;13371;52.080;5.624;2023-03-23T04:01:13;4.05;;;2.03;;
25449;SDS011;13371;52.080;5.624;2023-03-23T04:03:40;2.60;;;1.67;;
25449;SDS011;13371;52.080;5.624;2023-03-23T04:06:06;7.55;;;2.40;;
25449;SDS011;13371;52.080;5.624;2023-03-23T04:08:33;3.30;;;1.92;;
25449;SDS011;13371;52.080;5.624;2023-03-23T04:10:59;2.55;;;1.33;;
25449;SDS011;13371;52.080;5.624;2023-03-23T04:13:25;3.50;;;1.63;;
25449;SDS011;13371;52.080;5.624;2023-03-23T04:15:51;6.82;;;2.03;;
25449;SDS011;13371;52.080;5.624;2023-03-23T04:18:17;6.47;;;1.67;;
25449;SDS011;13371;52.080;5.624;2023-03-23T04:20:46;4.43;;;2.35;;
25449;SDS011;13371;52.080;5.624;2023-03-23T04:23:17;6.45;;;1.45;;
25449;SDS011;13371;52.080;5.624;2023-03-23T04:28:14;3.70;;;1.70;;
25449;SDS011;13371;52.080;5.624;2023-03-23T04:30:48;6.43;;;1.63;;
25449;SDS011;13371;52.080;5.624;2023-03-23T04:33:17;2.75;;;1.27;;
25449;SDS011;13371;52.080;5.624;2023-03-23T04:35:44;6.25;;;2.00;;
25449;SDS011;13371;52.080;5.624;2023-03-23T04:38:11;1.52;;;1.00;;
25449;SDS011;13371;52.080;5.624;2023-03-23T04:40:38;3.35;;;1.67;;
25449;SDS011;13371;52.080;5.624;2023-03-23T04:43:05;2.13;;;1.10;;
25449;SDS011;13371;52.080;5.624;2023-03-23T04:45:32;5.38;;;1.10;;
25449;SDS011;13371;52.080;5.624;2023-03-23T04:47:59;6.28;;;1.77;;
25449;SDS011;13371;52.080;5.624;2023-03-23T04:50:27;3.08;;;1.10;;
25449;SDS011;13371;52.080;5.624;2023-03-23T04:52:55;2.83;;;1.33;;
25449;SDS011;13371;52.080;5.624;2023-03-23T04:55:22;5.43;;;1.45;;
25449;SDS011;13371;52.080;5.624;2023-03-23T04:57:49;4.25;;;1.58;;
25449;SDS011;13371;52.080;5.624;2023-03-23T05:00:15;2.67;;;1.45;;
25449;SDS011;13371;52.080;5.624;2023-03-23T05:02:46;1.90;;;0.98;;
25449;SDS011;13371;52.080;5.624;2023-03-23T05:05:12;4.97;;;1.50;;
25449;SDS011;13371;52.080;5.624;2023-03-23T05:07:39;4.18;;;1.20;;
25449;SDS011;13371;52.080;5.624;2023-03-23T05:10:06;6.47;;;1.20;;
25449;SDS011;13371;52.080;5.624;2023-03-23T05:12:33;5.82;;;1.65;;
25449;SDS011;13371;52.080;5.624;2023-03-23T05:14:59;3.03;;;0.77;;
25449;SDS011;13371;52.080;5.624;2023-03-23T05:17:25;5.95;;;1.27;;
25449;SDS011;13371;52.080;5.624;2023-03-23T05:19:52;2.83;;;1.20;;
25449;SDS011;13371;52.080;5.624;2023-03-23T05:22:18;5.47;;;0.98;;
25449;SDS011;13371;52.080;5.624;2023-03-23T05:24:45;5.40;;;1.30;;
25449;SDS011;13371;52.080;5.624;2023-03-23T05:27:12;2.65;;;0.63;;
25449;SDS011;13371;52.080;5.624;2023-03-23T05:29:39;1.40;;;0.70;;
25449;SDS011;13371;52.080;5.624;2023-03-23T05:32:08;3.83;;;0.90;;
25449;SDS011;13371;52.080;5.624;2023-03-23T05:34:34;5.80;;;1.25;;
25449;SDS011;13371;52.080;5.624;2023-03-23T05:37:01;2.20;;;1.00;;
25449;SDS011;13371;52.080;5.624;2023-03-23T05:39:28;2.47;;;1.13;;
25449;SDS011;13371;52.080;5.624;2023-03-23T05:41:56;5.53;;;1.30;;
25449;SDS011;13371;52.080;5.624;2023-03-23T05:44:21;3.25;;;1.10;;
25449;SDS011;13371;52.080;5.624;2023-03-23T05:46:47;1.48;;;0.85;;
25449;SDS011;13371;52.080;5.624;2023-03-23T05:49:14;7.75;;;1.30;;
25449;SDS011;13371;52.080;5.624;2023-03-23T05:51:41;2.58;;;0.70;;
25449;SDS011;13371;52.080;5.624;2023-03-23T05:54:10;1.90;;;1.05;;
25449;SDS011;13371;52.080;5.624;2023-03-23T05:56:36;1.83;;;1.00;;
25449;SDS011;13371;52.080;5.624;2023-03-23T05:59:02;6.18;;;1.20;;
25449;SDS011;13371;52.080;5.624;2023-03-23T06:01:28;1.90;;;1.10;;
25449;SDS011;13371;52.080;5.624;2023-03-23T06:03:54;4.70;;;0.98;;
25449;SDS011;13371;52.080;5.624;2023-03-23T06:06:23;1.88;;;1.05;;
25449;SDS011;13371;52.080;5.624;2023-03-23T06:08:50;3.45;;;1.20;;
25449;SDS011;13371;52.080;5.624;2023-03-23T06:11:15;6.57;;;1.42;;
25449;SDS011;13371;52.080;5.624;2023-03-23T06:13:42;2.30;;;1.08;;
25449;SDS011;13371;52.080;5.624;2023-03-23T06:16:08;3.80;;;1.42;;
25449;SDS011;13371;52.080;5.624;2023-03-23T06:18:34;1.70;;;1.20;;
25449;SDS011;13371;52.080;5.624;2023-03-23T06:21:02;4.93;;;1.27;;
25449;SDS011;13371;52.080;5.624;2023-03-23T06:23:28;3.92;;;1.15;;
25449;SDS011;13371;52.080;5.624;2023-03-23T06:25:58;3.92;;;1.00;;
25449;SDS011;13371;52.080;5.624;2023-03-23T06:28:26;2.63;;;0.70;;
25449;SDS011;13371;52.080;5.624;2023-03-23T06:30:52;2.40;;;1.10;;
25449;SDS011;13371;52.080;5.624;2023-03-23T06:33:17;2.55;;;1.20;;
25449;SDS011;13371;52.080;5.624;2023-03-23T06:35:43;2.92;;;0.85;;
25449;SDS011;13371;52.080;5.624;2023-03-23T06:38:09;3.67;;;1.00;;
25449;SDS011;13371;52.080;5.624;2023-03-23T06:40:35;5.43;;;1.17;;
25449;SDS011;13371;52.080;5.624;2023-03-23T06:43:01;3.25;;;0.88;;
25449;SDS011;13371;52.080;5.624;2023-03-23T06:45:28;4.53;;;1.00;;
25449;SDS011;13371;52.080;5.624;2023-03-23T06:47:54;5.80;;;1.17;;
25449;SDS011;13371;52.080;5.624;2023-03-23T06:50:20;8.73;;;1.38;;
25449;SDS011;13371;52.080;5.624;2023-03-23T06:52:46;1.40;;;0.82;;
25449;SDS011;13371;52.080;5.624;2023-03-23T06:55:13;3.95;;;1.15;;
25449;SDS011;13371;52.080;5.624;2023-03-23T06:57:40;6.60;;;2.20;;
25449;SDS011;13371;52.080;5.624;2023-03-23T07:00:07;3.85;;;1.42;;
25449;SDS011;13371;52.080;5.624;2023-03-23T07:02:37;4.63;;;1.27;;
25449;SDS011;13371;52.080;5.624;2023-03-23T07:05:03;5.32;;;1.10;;
25449;SDS011;13371;52.080;5.624;2023-03-23T07:07:29;6.22;;;1.50;;
25449;SDS011;13371;52.080;5.624;2023-03-23T07:09:55;0.90;;;0.60;;
25449;SDS011;13371;52.080;5.624;2023-03-23T07:12:21;4.53;;;0.73;;
25449;SDS011;13371;52.080;5.624;2023-03-23T07:14:47;5.55;;;1.35;;
25449;SDS011;13371;52.080;5.624;2023-03-23T07:17:13;5.40;;;1.15;;
25449;SDS011;13371;52.080;5.624;2023-03-23T07:19:39;6.10;;;1.45;;
25449;SDS011;13371;52.080;5.624;2023-03-23T07:22:05;1.65;;;0.90;;
25449;SDS011;13371;52.080;5.624;2023-03-23T07:24:32;4.18;;;1.05;;
25449;SDS011;13371;52.080;5.624;2023-03-23T07:26:58;2.78;;;1.08;;
25449;SDS011;13371;52.080;5.624;2023-03-23T07:29:24;3.83;;;0.93;;
25449;SDS011;13371;52.080;5.624;2023-03-23T07:31:49;4.57;;;0.85;;
25449;SDS011;13371;52.080;5.624;2023-03-23T07:34:16;6.22;;;2.15;;
25449;SDS011;13371;52.080;5.624;2023-03-23T07:36:42;2.35;;;0.50;;
25449;SDS011;13371;52.080;5.624;2023-03-23T07:39:08;3.13;;;1.10;;
25449;SDS011;13371;52.080;5.624;2023-03-23T07:41:34;4.45;;;1.25;;
25449;SDS011;13371;52.080;5.624;2023-03-23T07:44:00;4.97;;;1.42;;
25449;SDS011;13371;52.080;5.624;2023-03-23T07:46:26;2.67;;;0.88;;
25449;SDS011;13371;52.080;5.624;2023-03-23T07:48:51;9.63;;;1.13;;
25449;SDS011;13371;52.080;5.624;2023-03-23T07:51:17;6.03;;;1.20;;
25449;SDS011;13371;52.080;5.624;2023-03-23T07:53:43;4.60;;;1.05;;
25449;SDS011;13371;52.080;5.624;2023-03-23T07:56:12;3.40;;;1.17;;
25449;SDS011;13371;52.080;5.624;2023-03-23T07:58:39;1.48;;;1.00;;
25449;SDS011;13371;52.080;5.624;2023-03-23T08:01:09;5.95;;;1.63;;
25449;SDS011;13371;52.080;5.624;2023-03-23T08:03:35;2.28;;;1.08;;
25449;SDS011;13371;52.080;5.624;2023-03-23T08:06:00;3.33;;;1.13;;
25449;SDS011;13371;52.080;5.624;2023-03-23T08:08:26;5.13;;;1.00;;
25449;SDS011;13371;52.080;5.624;2023-03-23T08:10:52;2.47;;;1.35;;
25449;SDS011;13371;52.080;5.624;2023-03-23T08:13:17;5.50;;;2.28;;
25449;SDS011;13371;52.080;5.624;2023-03-23T08:15:43;4.78;;;1.27;;
25449;SDS011;13371;52.080;5.624;2023-03-23T08:18:10;4.07;;;1.35;;
25449;SDS011;13371;52.080;5.624;2023-03-23T08:20:36;2.53;;;0.82;;
25449;SDS011;13371;52.080;5.624;2023-03-23T08:23:02;3.67;;;1.20;;
25449;SDS011;13371;52.080;5.624;2023-03-23T08:25:28;3.60;;;1.25;;
25449;SDS011;13371;52.080;5.624;2023-03-23T08:27:59;9.00;;;1.58;;
25449;SDS011;13371;52.080;5.624;2023-03-23T08:30:26;7.47;;;1.20;;
25449;SDS011;13371;52.080;5.624;2023-03-23T08:32:54;6.72;;;1.50;;
25449;SDS011;13371;52.080;5.624;2023-03-23T08:35:21;6.30;;;1.63;;
25449;SDS011;13371;52.080;5.624;2023-03-23T08:37:47;7.85;;;1.63;;
25449;SDS011;13371;52.080;5.624;2023-03-23T08:40:16;5.63;;;1.40;;
25449;SDS011;13371;52.080;5.624;2023-03-23T08:42:44;3.08;;;1.33;;
25449;SDS011;13371;52.080;5.624;2023-03-23T08:45:11;8.93;;;1.75;;
25449;SDS011;13371;52.080;5.624;2023-03-23T08:47:40;3.53;;;1.38;;
25449;SDS011;13371;52.080;5.624;2023-03-23T08:50:07;2.58;;;1.30;;
25449;SDS011;13371;52.080;5.624;2023-03-23T08:52:35;5.65;;;1.90;;
25449;SDS011;13371;52.080;5.624;2023-03-23T08:55:02;2.22;;;1.27;;
25449;SDS011;13371;52.080;5.624;2023-03-23T08:57:28;4.13;;;1.70;;
25449;SDS011;13371;52.080;5.624;2023-03-23T08:59:54;1.25;;;1.05;;
25449;SDS011;13371;52.080;5.624;2023-03-23T09:02:22;3.83;;;1.10;;
25449;SDS011;13371;52.080;5.624;2023-03-23T09:04:48;3.13;;;1.27;;
25449;SDS011;13371;52.080;5.624;2023-03-23T09:07:15;1.30;;;0.82;;
25449;SDS011;13371;52.080;5.624;2023-03-23T09:09:40;7.53;;;1.50;;
25449;SDS011;13371;52.080;5.624;2023-03-23T09:12:07;3.47;;;1.33;;
25449;SDS011;13371;52.080;5.624;2023-03-23T09:14:34;2.50;;;1.27;;
25449;SDS011;13371;52.080;5.624;2023-03-23T09:17:00;2.67;;;1.33;;
25449;SDS011;13371;52.080;5.624;2023-03-23T09:19:27;4.25;;;1.42;;
25449;SDS011;13371;52.080;5.624;2023-03-23T09:21:54;3.95;;;1.40;;
25449;SDS011;13371;52.080;5.624;2023-03-23T09:24:20;3.10;;;1.20;;
25449;SDS011;13371;52.080;5.624;2023-03-23T09:26:46;5.80;;;1.52;;
25449;SDS011;13371;52.080;5.624;2023-03-23T09:29:11;4.45;;;1.30;;
25449;SDS011;13371;52.080;5.624;2023-03-23T09:31:37;4.47;;;1.15;;
25449;SDS011;13371;52.080;5.624;2023-03-23T09:34:05;3.55;;;1.25;;
25449;SDS011;13371;52.080;5.624;2023-03-23T09:36:31;6.38;;;1.80;;
25449;SDS011;13371;52.080;5.624;2023-03-23T09:38:57;4.32;;;1.27;;
25449;SDS011;13371;52.080;5.624;2023-03-23T09:44:33;5.03;;;1.45;;
25449;SDS011;13371;52.080;5.624;2023-03-23T09:49:34;4.43;;;1.10;;
25449;SDS011;13371;52.080;5.624;2023-03-23T09:52:27;3.35;;;0.90;;
25449;SDS011;13371;52.080;5.624;2023-03-23T09:55:18;4.18;;;1.00;;
25449;SDS011;13371;52.080;5.624;2023-03-23T10:00:46;5.00;;;1.20;;
25449;SDS011;13371;52.080;5.624;2023-03-23T10:03:43;2.25;;;1.25;;
25449;SDS011;13371;52.080;5.624;2023-03-23T10:06:11;4.90;;;0.85;;
25449;SDS011;13371;52.080;5.624;2023-03-23T10:08:41;3.22;;;0.80;;
25449;SDS011;13371;52.080;5.624;2023-03-23T10:11:26;5.13;;;0.98;;
25449;SDS011;13371;52.080;5.624;2023-03-23T10:16:50;2.70;;;0.98;;
25449;SDS011;13371;52.080;5.624;2023-03-23T10:19:27;8.43;;;1.23;;
25449;SDS011;13371;52.080;5.624;2023-03-23T10:22:04;6.97;;;1.15;;
25449;SDS011;13371;52.080;5.624;2023-03-23T10:24:43;4.07;;;1.05;;
25449;SDS011;13371;52.080;5.624;2023-03-23T10:29:42;6.18;;;1.20;;
25449;SDS011;13371;52.080;5.624;2023-03-23T10:32:16;5.25;;;1.33;;
25449;SDS011;13371;52.080;5.624;2023-03-23T10:34:57;4.03;;;0.93;;
25449;SDS011;13371;52.080;5.624;2023-03-23T10:37:29;3.47;;;1.00;;
25449;SDS011;13371;52.080;5.624;2023-03-23T10:40:02;5.10;;;1.10;;
25449;SDS011;13371;52.080;5.624;2023-03-23T10:42:34;5.55;;;1.20;;
25449;SDS011;13371;52.080;5.624;2023-03-23T10:45:18;4.10;;;0.93;;
25449;SDS011;13371;52.080;5.624;2023-03-23T10:48:09;4.47;;;1.00;;
25449;SDS011;13371;52.080;5.624;2023-03-23T10:50:39;8.25;;;1.45;;
25449;SDS011;13371;52.080;5.624;2023-03-23T10:53:51;5.20;;;0.82;;
25449;SDS011;13371;52.080;5.624;2023-03-23T10:55:59;2.75;;;1.17;;
25449;SDS011;13371;52.080;5.624;2023-03-23T10:58:27;3.30;;;0.95;;
25449;SDS011;13371;52.080;5.624;2023-03-23T11:00:54;4.55;;;1.48;;
25449;SDS011;13371;52.080;5.624;2023-03-23T11:03:24;8.55;;;1.00;;
25449;SDS011;13371;52.080;5.624;2023-03-23T11:06:03;3.95;;;0.93;;
25449;SDS011;13371;52.080;5.624;2023-03-23T11:08:33;7.72;;;1.40;;
25449;SDS011;13371;52.080;5.624;2023-03-23T11:11:16;7.32;;;1.20;;
25449;SDS011;13371;52.080;5.624;2023-03-23T11:13:55;6.03;;;0.82;;
25449;SDS011;13371;52.080;5.624;2023-03-23T11:18:54;2.67;;;0.73;;
25449;SDS011;13371;52.080;5.624;2023-03-23T11:21:20;6.68;;;2.03;;
25449;SDS011;13371;52.080;5.624;2023-03-23T11:23:55;3.90;;;1.30;;
25449;SDS011;13371;52.080;5.624;2023-03-23T11:26:30;3.40;;;1.02;;
25449;SDS011;13371;52.080;5.624;2023-03-23T11:28:59;5.45;;;1.13;;
25449;SDS011;13371;52.080;5.624;2023-03-23T11:31:35;6.45;;;1.25;;
25449;SDS011;13371;52.080;5.624;2023-03-23T11:34:08;2.17;;;1.35;;
25449;SDS011;13371;52.080;5.624;2023-03-23T11:36:50;1.73;;;0.80;;
25449;SDS011;13371;52.080;5.624;2023-03-23T11:39:25;4.70;;;1.38;;
25449;SDS011;13371;52.080;5.624;2023-03-23T11:41:51;3.20;;;1.10;;
25449;SDS011;13371;52.080;5.624;2023-03-23T11:44:17;8.48;;;1.30;;
25449;SDS011;13371;52.080;5.624;2023-03-23T11:52:18;5.38;;;0.98;;
25449;SDS011;13371;52.080;5.624;2023-03-23T11:55:00;6.15;;;1.15;;
25449;SDS011;13371;52.080;5.624;2023-03-23T11:57:35;3.90;;;1.38;;
25449;SDS011;13371;52.080;5.624;2023-03-23T12:00:05;4.53;;;1.30;;
25449;SDS011;13371;52.080;5.624;2023-03-23T12:02:56;10.27;;;1.35;;
25449;SDS011;13371;52.080;5.624;2023-03-23T12:05:36;3.10;;;1.17;;
25449;SDS011;13371;52.080;5.624;2023-03-23T12:13:35;5.78;;;0.90;;
25449;SDS011;13371;52.080;5.624;2023-03-23T12:19:33;4.22;;;0.90;;
25449;SDS011;13371;52.080;5.624;2023-03-23T12:27:19;4.35;;;0.90;;
25449;SDS011;13371;52.080;5.624;2023-03-23T12:33:09;3.50;;;0.88;;
25449;SDS011;13371;52.080;5.624;2023-03-23T12:35:56;1.73;;;0.80;;
25449;SDS011;13371;52.080;5.624;2023-03-23T12:44:05;4.80;;;1.67;;
25449;SDS011;13371;52.080;5.624;2023-03-23T12:51:48;2.92;;;1.30;;
25449;SDS011;13371;52.080;5.624;2023-03-23T12:54:39;4.82;;;1.17;;
25449;SDS011;13371;52.080;5.624;2023-03-23T12:59:46;2.58;;;0.90;;
25449;SDS011;13371;52.080;5.624;2023-03-23T13:02:22;2.67;;;1.42;;
25449;SDS011;13371;52.080;5.624;2023-03-23T13:05:54;2.65;;;1.50;;
25449;SDS011;13371;52.080;5.624;2023-03-23T13:07:48;3.15;;;1.65;;
25449;SDS011;13371;52.080;5.624;2023-03-23T13:10:22;3.80;;;1.38;;
25449;SDS011;13371;52.080;5.624;2023-03-23T13:28:26;13.63;;;2.80;;
25449;SDS011;13371;52.080;5.624;2023-03-23T13:31:03;3.40;;;0.90;;
25449;SDS011;13371;52.080;5.624;2023-03-23T13:33:38;3.30;;;0.98;;
25449;SDS011;13371;52.080;5.624;2023-03-23T13:36:12;2.45;;;0.82;;
25449;SDS011;13371;52.080;5.624;2023-03-23T13:38:47;4.47;;;0.85;;
25449;SDS011;13371;52.080;5.624;2023-03-23T13:41:15;7.97;;;0.93;;
25449;SDS011;13371;52.080;5.624;2023-03-23T13:43:43;5.85;;;0.98;;
25449;SDS011;13371;52.080;5.624;2023-03-23T13:48:48;5.13;;;0.90;;
25449;SDS011;13371;52.080;5.624;2023-03-23T13:54:22;0.93;;;0.52;;
25449;SDS011;13371;52.080;5.624;2023-03-23T13:59:35;6.13;;;1.70;;
25449;SDS011;13371;52.080;5.624;2023-03-23T14:02:32;3.47;;;1.20;;
25449;SDS011;13371;52.080;5.624;2023-03-23T14:05:09;3.10;;;1.08;;
25449;SDS011;13371;52.080;5.624;2023-03-23T14:07:54;1.50;;;0.63;;
25449;SDS011;13371;52.080;5.624;2023-03-23T14:10:43;3.72;;;1.02;;
25449;SDS011;13371;52.080;5.624;2023-03-23T14:18:23;7.68;;;1.08;;
25449;SDS011;13371;52.080;5.624;2023-03-23T14:20:52;5.70;;;1.90;;
25449;SDS011;13371;52.080;5.624;2023-03-23T14:23:18;5.78;;;1.33;;
25449;SDS011;13371;52.080;5.624;2023-03-23T14:25:44;3.20;;;1.10;;
25449;SDS011;13371;52.080;5.624;2023-03-23T14:28:20;6.60;;;1.20;;
25449;SDS011;13371;52.080;5.624;2023-03-23T14:30:47;5.18;;;1.45;;
25449;SDS011;13371;52.080;5.624;2023-03-23T14:33:17;2.15;;;1.65;;
25449;SDS011;13371;52.080;5.624;2023-03-23T14:35:45;5.25;;;1.00;;
25449;SDS011;13371;52.080;5.624;2023-03-23T14:38:17;1.88;;;0.98;;
25449;SDS011;13371;52.080;5.624;2023-03-23T14:40:46;2.53;;;1.17;;
25449;SDS011;13371;52.080;5.624;2023-03-23T14:43:14;2.40;;;0.50;;
25449;SDS011;13371;52.080;5.624;2023-03-23T14:45:43;10.25;;;1.70;;
25449;SDS011;13371;52.080;5.624;2023-03-23T14:48:10;5.70;;;1.13;;
25449;SDS011;13371;52.080;5.624;2023-03-23T14:50:41;4.65;;;0.95;;
25449;SDS011;13371;52.080;5.624;2023-03-23T14:53:16;5.35;;;1.20;;
25449;SDS011;13371;52.080;5.624;2023-03-23T14:55:51;3.85;;;1.23;;
25449;SDS011;13371;52.080;5.624;2023-03-23T14:58:19;4.63;;;0.77;;
25449;SDS011;13371;52.080;5.624;2023-03-23T15:00:52;3.92;;;1.10;;
25449;SDS011;13371;52.080;5.624;2023-03-23T15:03:31;5.90;;;2.42;;
25449;SDS011;13371;52.080;5.624;2023-03-23T15:06:02;2.50;;;0.98;;
25449;SDS011;13371;52.080;5.624;2023-03-23T15:08:34;6.00;;;0.80;;
25449;SDS011;13371;52.080;5.624;2023-03-23T15:13:35;1.83;;;0.70;;
25449;SDS011;13371;52.080;5.624;2023-03-23T15:16:05;4.30;;;0.73;;
25449;SDS011;13371;52.080;5.624;2023-03-23T15:18:37;6.15;;;1.38;;
25449;SDS011;13371;52.080;5.624;2023-03-23T15:21:18;3.58;;;0.75;;
25449;SDS011;13371;52.080;5.624;2023-03-23T15:23:55;2.53;;;0.98;;
25449;SDS011;13371;52.080;5.624;2023-03-23T15:26:32;3.67;;;1.15;;
25449;SDS011;13371;52.080;5.624;2023-03-23T15:31:41;4.80;;;0.85;;
25449;SDS011;13371;52.080;5.624;2023-03-23T15:34:15;2.40;;;1.08;;
25449;SDS011;13371;52.080;5.624;2023-03-23T15:37:04;5.32;;;1.60;;
25449;SDS011;13371;52.080;5.624;2023-03-23T15:39:41;3.95;;;0.80;;
25449;SDS011;13371;52.080;5.624;2023-03-23T15:42:19;5.82;;;1.13;;
25449;SDS011;13371;52.080;5.624;2023-03-23T15:50:17;3.38;;;0.90;;
25449;SDS011;13371;52.080;5.624;2023-03-23T15:52:52;2.40;;;0.77;;
25449;SDS011;13371;52.080;5.624;2023-03-23T15:55:19;4.38;;;1.38;;
25449;SDS011;13371;52.080;5.624;2023-03-23T15:58:01;5.67;;;1.53;;
25449;SDS011;13371;52.080;5.624;2023-03-23T16:00:37;5.13;;;1.73;;
25449;SDS011;13371;52.080;5.624;2023-03-23T16:03:04;1.73;;;0.65;;
25449;SDS011;13371;52.080;5.624;2023-03-23T16:05:33;3.85;;;1.02;;
25449;SDS011;13371;52.080;5.624;2023-03-23T16:07:59;3.22;;;1.05;;
25449;SDS011;13371;52.080;5.624;2023-03-23T16:10:25;3.83;;;1.10;;
25449;SDS011;13371;52.080;5.624;2023-03-23T16:12:52;2.00;;;0.73;;
25449;SDS011;13371;52.080;5.624;2023-03-23T16:15:18;6.60;;;1.75;;
25449;SDS011;13371;52.080;5.624;2023-03-23T16:17:44;7.13;;;1.60;;
25449;SDS011;13371;52.080;5.624;2023-03-23T16:20:15;5.50;;;1.77;;
25449;SDS011;13371;52.080;5.624;2023-03-23T16:22:43;2.37;;;1.20;;
25449;SDS011;13371;52.080;5.624;2023-03-23T16:25:09;5.88;;;1.15;;
25449;SDS011;13371;52.080;5.624;2023-03-23T16:27:35;10.50;;;1.38;;
25449;SDS011;13371;52.080;5.624;2023-03-23T16:30:04;1.90;;;0.88;;
25449;SDS011;13371;52.080;5.624;2023-03-23T16:32:37;4.43;;;0.98;;
25449;SDS011;13371;52.080;5.624;2023-03-23T16:35:03;1.88;;;0.95;;
25449;SDS011;13371;52.080;5.624;2023-03-23T16:37:28;4.28;;;1.25;;
25449;SDS011;13371;52.080;5.624;2023-03-23T16:39:57;4.40;;;1.50;;
25449;SDS011;13371;52.080;5.624;2023-03-23T16:42:22;4.20;;;1.20;;
25449;SDS011;13371;52.080;5.624;2023-03-23T16:44:48;4.88;;;1.58;;
25449;SDS011;13371;52.080;5.624;2023-03-23T16:47:14;8.68;;;1.70;;
25449;SDS011;13371;52.080;5.624;2023-03-23T16:49:42;2.03;;;1.10;;
25449;SDS011;13371;52.080;5.624;2023-03-23T16:52:08;6.53;;;1.73;;
25449;SDS011;13371;52.080;5.624;2023-03-23T16:54:34;5.30;;;1.52;;
25449;SDS011;13371;52.080;5.624;2023-03-23T16:57:00;6.32;;;1.50;;
25449;SDS011;13371;52.080;5.624;2023-03-23T16:59:26;4.47;;;1.40;;
25449;SDS011;13371;52.080;5.624;2023-03-23T17:01:52;5.15;;;2.05;;
25449;SDS011;13371;52.080;5.624;2023-03-23T17:04:18;4.50;;;1.25;;
25449;SDS011;13371;52.080;5.624;2023-03-23T17:06:44;4.20;;;1.20;;